Terminal Aerodrome Forecast
Issued by NWS

Home | Current Version | Previous Version | Text Only | Print | Product List | Glossary On
Versions: 1 2 3 4 5 6 7 8 9 10 11 12 13 14 15 16 17 18 19 20 21 22 23 24 25 26 27 28 29 30
000
FTUS43 KGRB 300500
TAFRHI
TAF
KRHI 300520Z 3006/3106 28007KT P6SM SCT060
     FM301500 27009G16KT P6SM BKN250
     FM302200 19006KT P6SM SCT040 BKN090
     FM310000 06005KT P6SM BKN040
      TEMPO 3100/3104 4SM -RASN
     FM310400 06004KT 4SM -SN BKN025=

USA.gov is the U.S. government's official web portal to all federal, state and local government web resources and services.